sensor_id;sensor_type;location;lat;lon;timestamp;P1;durP1;ratioP1;P2;durP2;ratioP2
9496;SDS011;4786;51.270;4.456;2023-04-15T00:00:32;5.37;;;3.07;;
9496;SDS011;4786;51.270;4.456;2023-04-15T00:02:58;4.60;;;3.00;;
9496;SDS011;4786;51.270;4.456;2023-04-15T00:05:26;4.50;;;3.17;;
9496;SDS011;4786;51.270;4.456;2023-04-15T00:07:54;3.97;;;3.07;;
9496;SDS011;4786;51.270;4.456;2023-04-15T00:10:20;6.50;;;3.07;;
9496;SDS011;4786;51.270;4.456;2023-04-15T00:12:45;8.57;;;3.30;;
9496;SDS011;4786;51.270;4.456;2023-04-15T00:15:11;6.13;;;2.83;;
9496;SDS011;4786;51.270;4.456;2023-04-15T00:17:37;4.30;;;3.30;;
9496;SDS011;4786;51.270;4.456;2023-04-15T00:20:03;4.27;;;2.90;;
9496;SDS011;4786;51.270;4.456;2023-04-15T00:22:30;4.13;;;2.90;;
9496;SDS011;4786;51.270;4.456;2023-04-15T00:24:57;4.10;;;3.07;;
9496;SDS011;4786;51.270;4.456;2023-04-15T00:27:22;6.23;;;3.27;;
9496;SDS011;4786;51.270;4.456;2023-04-15T00:29:48;3.40;;;2.87;;
9496;SDS011;4786;51.270;4.456;2023-04-15T00:32:15;5.77;;;2.93;;
9496;SDS011;4786;51.270;4.456;2023-04-15T00:34:41;5.50;;;2.93;;
9496;SDS011;4786;51.270;4.456;2023-04-15T00:37:07;5.53;;;3.43;;
9496;SDS011;4786;51.270;4.456;2023-04-15T00:39:34;4.57;;;2.87;;
9496;SDS011;4786;51.270;4.456;2023-04-15T00:42:00;4.53;;;2.83;;
9496;SDS011;4786;51.270;4.456;2023-04-15T00:44:28;6.13;;;2.80;;
9496;SDS011;4786;51.270;4.456;2023-04-15T00:46:54;3.40;;;3.10;;
9496;SDS011;4786;51.270;4.456;2023-04-15T00:49:22;4.17;;;2.80;;
9496;SDS011;4786;51.270;4.456;2023-04-15T00:51:49;6.77;;;3.30;;
9496;SDS011;4786;51.270;4.456;2023-04-15T00:54:15;7.30;;;2.73;;
9496;SDS011;4786;51.270;4.456;2023-04-15T00:56:41;3.60;;;2.80;;
9496;SDS011;4786;51.270;4.456;2023-04-15T00:59:07;4.17;;;3.20;;
9496;SDS011;4786;51.270;4.456;2023-04-15T01:01:36;4.40;;;3.17;;
9496;SDS011;4786;51.270;4.456;2023-04-15T01:04:03;4.77;;;2.83;;
9496;SDS011;4786;51.270;4.456;2023-04-15T01:06:30;5.77;;;3.40;;
9496;SDS011;4786;51.270;4.456;2023-04-15T01:08:56;5.07;;;2.80;;
9496;SDS011;4786;51.270;4.456;2023-04-15T01:11:23;4.83;;;3.13;;
9496;SDS011;4786;51.270;4.456;2023-04-15T01:13:50;6.07;;;3.33;;
9496;SDS011;4786;51.270;4.456;2023-04-15T01:16:17;4.47;;;3.00;;
9496;SDS011;4786;51.270;4.456;2023-04-15T01:18:44;9.37;;;3.57;;
9496;SDS011;4786;51.270;4.456;2023-04-15T01:21:10;6.40;;;3.73;;
9496;SDS011;4786;51.270;4.456;2023-04-15T01:23:36;6.33;;;2.93;;
9496;SDS011;4786;51.270;4.456;2023-04-15T01:26:03;4.27;;;3.30;;
9496;SDS011;4786;51.270;4.456;2023-04-15T01:28:31;5.17;;;3.37;;
9496;SDS011;4786;51.270;4.456;2023-04-15T01:31:10;3.87;;;3.10;;
9496;SDS011;4786;51.270;4.456;2023-04-15T01:33:40;5.47;;;3.00;;
9496;SDS011;4786;51.270;4.456;2023-04-15T01:36:08;6.03;;;3.20;;
9496;SDS011;4786;51.270;4.456;2023-04-15T01:38:35;5.57;;;3.47;;
9496;SDS011;4786;51.270;4.456;2023-04-15T01:41:01;5.67;;;3.03;;
9496;SDS011;4786;51.270;4.456;2023-04-15T01:43:32;4.67;;;3.10;;
9496;SDS011;4786;51.270;4.456;2023-04-15T01:45:58;4.90;;;3.00;;
9496;SDS011;4786;51.270;4.456;2023-04-15T01:48:30;4.67;;;3.13;;
9496;SDS011;4786;51.270;4.456;2023-04-15T01:50:57;4.83;;;3.50;;
9496;SDS011;4786;51.270;4.456;2023-04-15T01:53:23;3.73;;;2.90;;
9496;SDS011;4786;51.270;4.456;2023-04-15T01:55:50;4.03;;;3.07;;
9496;SDS011;4786;51.270;4.456;2023-04-15T01:58:16;4.60;;;3.20;;
9496;SDS011;4786;51.270;4.456;2023-04-15T02:00:43;6.97;;;3.60;;
9496;SDS011;4786;51.270;4.456;2023-04-15T02:03:09;6.33;;;3.47;;
9496;SDS011;4786;51.270;4.456;2023-04-15T02:05:36;5.50;;;3.33;;
9496;SDS011;4786;51.270;4.456;2023-04-15T02:08:01;4.83;;;3.20;;
9496;SDS011;4786;51.270;4.456;2023-04-15T02:10:27;6.43;;;3.43;;
9496;SDS011;4786;51.270;4.456;2023-04-15T02:12:54;5.57;;;3.40;;
9496;SDS011;4786;51.270;4.456;2023-04-15T02:15:20;4.30;;;3.50;;
9496;SDS011;4786;51.270;4.456;2023-04-15T02:17:46;5.77;;;3.13;;
9496;SDS011;4786;51.270;4.456;2023-04-15T02:20:15;7.40;;;3.80;;
9496;SDS011;4786;51.270;4.456;2023-04-15T02:22:41;6.53;;;3.67;;
9496;SDS011;4786;51.270;4.456;2023-04-15T02:25:08;7.53;;;3.80;;
9496;SDS011;4786;51.270;4.456;2023-04-15T02:27:34;6.70;;;3.63;;
9496;SDS011;4786;51.270;4.456;2023-04-15T02:30:01;5.27;;;3.67;;
9496;SDS011;4786;51.270;4.456;2023-04-15T02:32:28;6.20;;;3.30;;
9496;SDS011;4786;51.270;4.456;2023-04-15T02:34:54;5.27;;;3.30;;
9496;SDS011;4786;51.270;4.456;2023-04-15T02:37:20;5.30;;;3.20;;
9496;SDS011;4786;51.270;4.456;2023-04-15T02:39:47;5.33;;;3.40;;
9496;SDS011;4786;51.270;4.456;2023-04-15T02:42:13;5.00;;;3.33;;
9496;SDS011;4786;51.270;4.456;2023-04-15T02:44:39;8.30;;;3.50;;
9496;SDS011;4786;51.270;4.456;2023-04-15T02:47:05;7.23;;;3.63;;
9496;SDS011;4786;51.270;4.456;2023-04-15T02:49:31;6.30;;;3.50;;
9496;SDS011;4786;51.270;4.456;2023-04-15T02:51:57;6.67;;;3.83;;
9496;SDS011;4786;51.270;4.456;2023-04-15T02:54:24;5.50;;;4.07;;
9496;SDS011;4786;51.270;4.456;2023-04-15T02:56:52;8.17;;;4.13;;
9496;SDS011;4786;51.270;4.456;2023-04-15T02:59:20;6.73;;;4.40;;
9496;SDS011;4786;51.270;4.456;2023-04-15T03:01:46;8.40;;;4.10;;
9496;SDS011;4786;51.270;4.456;2023-04-15T03:04:12;9.80;;;4.60;;
9496;SDS011;4786;51.270;4.456;2023-04-15T03:06:38;6.63;;;4.07;;
9496;SDS011;4786;51.270;4.456;2023-04-15T03:09:04;6.70;;;3.90;;
9496;SDS011;4786;51.270;4.456;2023-04-15T03:11:30;6.47;;;3.90;;
9496;SDS011;4786;51.270;4.456;2023-04-15T03:13:57;5.77;;;4.10;;
9496;SDS011;4786;51.270;4.456;2023-04-15T03:16:23;8.33;;;4.67;;
9496;SDS011;4786;51.270;4.456;2023-04-15T03:18:49;6.67;;;4.50;;
9496;SDS011;4786;51.270;4.456;2023-04-15T03:21:16;6.83;;;4.50;;
9496;SDS011;4786;51.270;4.456;2023-04-15T03:23:42;9.63;;;4.90;;
9496;SDS011;4786;51.270;4.456;2023-04-15T03:26:07;6.47;;;5.00;;
9496;SDS011;4786;51.270;4.456;2023-04-15T03:28:33;7.33;;;5.50;;
9496;SDS011;4786;51.270;4.456;2023-04-15T03:30:59;8.13;;;5.00;;
9496;SDS011;4786;51.270;4.456;2023-04-15T03:33:26;8.73;;;5.40;;
9496;SDS011;4786;51.270;4.456;2023-04-15T03:35:51;5.60;;;4.87;;
9496;SDS011;4786;51.270;4.456;2023-04-15T03:38:18;6.50;;;5.00;;
9496;SDS011;4786;51.270;4.456;2023-04-15T03:40:46;7.73;;;5.00;;
9496;SDS011;4786;51.270;4.456;2023-04-15T03:43:12;8.70;;;5.57;;
9496;SDS011;4786;51.270;4.456;2023-04-15T03:45:38;9.20;;;4.97;;
9496;SDS011;4786;51.270;4.456;2023-04-15T03:48:04;7.50;;;5.43;;
9496;SDS011;4786;51.270;4.456;2023-04-15T03:50:31;7.03;;;5.20;;
9496;SDS011;4786;51.270;4.456;2023-04-15T03:52:57;7.07;;;4.97;;
9496;SDS011;4786;51.270;4.456;2023-04-15T03:55:22;7.23;;;5.23;;
9496;SDS011;4786;51.270;4.456;2023-04-15T03:57:48;8.87;;;5.60;;
9496;SDS011;4786;51.270;4.456;2023-04-15T04:00:15;7.70;;;5.63;;
9496;SDS011;4786;51.270;4.456;2023-04-15T04:02:41;7.77;;;5.20;;
9496;SDS011;4786;51.270;4.456;2023-04-15T04:05:07;6.40;;;5.17;;
9496;SDS011;4786;51.270;4.456;2023-04-15T04:07:33;5.87;;;5.27;;
9496;SDS011;4786;51.270;4.456;2023-04-15T04:09:59;8.30;;;5.13;;
9496;SDS011;4786;51.270;4.456;2023-04-15T04:12:25;7.37;;;5.50;;
9496;SDS011;4786;51.270;4.456;2023-04-15T04:14:51;8.27;;;6.20;;
9496;SDS011;4786;51.270;4.456;2023-04-15T04:17:16;10.37;;;6.07;;
9496;SDS011;4786;51.270;4.456;2023-04-15T04:19:42;8.27;;;5.77;;
9496;SDS011;4786;51.270;4.456;2023-04-15T04:22:08;7.47;;;5.13;;
9496;SDS011;4786;51.270;4.456;2023-04-15T04:24:35;9.17;;;6.13;;
9496;SDS011;4786;51.270;4.456;2023-04-15T04:27:01;9.00;;;6.50;;
9496;SDS011;4786;51.270;4.456;2023-04-15T04:29:27;7.33;;;5.80;;
9496;SDS011;4786;51.270;4.456;2023-04-15T04:31:53;9.23;;;5.60;;
9496;SDS011;4786;51.270;4.456;2023-04-15T04:34:19;8.50;;;6.30;;
9496;SDS011;4786;51.270;4.456;2023-04-15T04:36:45;8.03;;;6.23;;
9496;SDS011;4786;51.270;4.456;2023-04-15T04:39:11;9.67;;;7.27;;
9496;SDS011;4786;51.270;4.456;2023-04-15T04:41:37;9.13;;;6.87;;
9496;SDS011;4786;51.270;4.456;2023-04-15T04:44:03;9.27;;;6.60;;
9496;SDS011;4786;51.270;4.456;2023-04-15T04:46:29;7.17;;;6.30;;
9496;SDS011;4786;51.270;4.456;2023-04-15T04:48:55;8.63;;;6.20;;
9496;SDS011;4786;51.270;4.456;2023-04-15T04:51:21;7.43;;;6.73;;
9496;SDS011;4786;51.270;4.456;2023-04-15T04:53:47;7.93;;;6.67;;
9496;SDS011;4786;51.270;4.456;2023-04-15T04:56:13;7.20;;;6.60;;
9496;SDS011;4786;51.270;4.456;2023-04-15T04:58:39;7.87;;;6.87;;
9496;SDS011;4786;51.270;4.456;2023-04-15T05:01:06;10.87;;;7.30;;
9496;SDS011;4786;51.270;4.456;2023-04-15T05:03:32;8.37;;;6.93;;
9496;SDS011;4786;51.270;4.456;2023-04-15T05:05:57;10.17;;;7.63;;
9496;SDS011;4786;51.270;4.456;2023-04-15T05:08:23;9.80;;;6.90;;
9496;SDS011;4786;51.270;4.456;2023-04-15T05:10:49;8.50;;;7.17;;
9496;SDS011;4786;51.270;4.456;2023-04-15T05:13:14;11.10;;;8.17;;
9496;SDS011;4786;51.270;4.456;2023-04-15T05:15:40;11.93;;;7.27;;
9496;SDS011;4786;51.270;4.456;2023-04-15T05:18:07;13.33;;;8.40;;
9496;SDS011;4786;51.270;4.456;2023-04-15T05:20:32;11.27;;;8.13;;
9496;SDS011;4786;51.270;4.456;2023-04-15T05:22:58;12.00;;;8.13;;
9496;SDS011;4786;51.270;4.456;2023-04-15T05:25:24;11.30;;;7.93;;
9496;SDS011;4786;51.270;4.456;2023-04-15T05:27:50;9.57;;;8.40;;
9496;SDS011;4786;51.270;4.456;2023-04-15T05:30:16;10.30;;;8.37;;
9496;SDS011;4786;51.270;4.456;2023-04-15T05:32:42;10.67;;;8.30;;
9496;SDS011;4786;51.270;4.456;2023-04-15T05:35:07;12.87;;;8.63;;
9496;SDS011;4786;51.270;4.456;2023-04-15T05:37:33;12.63;;;8.87;;
9496;SDS011;4786;51.270;4.456;2023-04-15T05:39:59;10.27;;;8.93;;
9496;SDS011;4786;51.270;4.456;2023-04-15T05:42:25;16.33;;;9.30;;
9496;SDS011;4786;51.270;4.456;2023-04-15T05:44:51;13.67;;;8.90;;
9496;SDS011;4786;51.270;4.456;2023-04-15T05:47:17;14.80;;;9.60;;
9496;SDS011;4786;51.270;4.456;2023-04-15T05:49:42;9.70;;;8.30;;
9496;SDS011;4786;51.270;4.456;2023-04-15T05:52:08;12.57;;;8.47;;
9496;SDS011;4786;51.270;4.456;2023-04-15T05:54:35;14.40;;;9.40;;
9496;SDS011;4786;51.270;4.456;2023-04-15T05:57:01;11.70;;;8.83;;
9496;SDS011;4786;51.270;4.456;2023-04-15T05:59:27;12.97;;;9.20;;
9496;SDS011;4786;51.270;4.456;2023-04-15T06:01:53;11.40;;;8.80;;
9496;SDS011;4786;51.270;4.456;2023-04-15T06:04:19;13.87;;;9.97;;
9496;SDS011;4786;51.270;4.456;2023-04-15T06:06:45;12.30;;;9.97;;
9496;SDS011;4786;51.270;4.456;2023-04-15T06:09:12;12.20;;;10.33;;
9496;SDS011;4786;51.270;4.456;2023-04-15T06:11:38;12.87;;;11.17;;
9496;SDS011;4786;51.270;4.456;2023-04-15T06:14:05;14.93;;;10.50;;
9496;SDS011;4786;51.270;4.456;2023-04-15T06:16:31;14.00;;;10.53;;
9496;SDS011;4786;51.270;4.456;2023-04-15T06:18:57;12.13;;;10.20;;
9496;SDS011;4786;51.270;4.456;2023-04-15T06:21:23;11.97;;;10.47;;
9496;SDS011;4786;51.270;4.456;2023-04-15T06:23:49;15.23;;;10.57;;
9496;SDS011;4786;51.270;4.456;2023-04-15T06:26:15;13.23;;;10.57;;
9496;SDS011;4786;51.270;4.456;2023-04-15T06:28:41;13.60;;;10.10;;
9496;SDS011;4786;51.270;4.456;2023-04-15T06:31:07;11.23;;;10.13;;
9496;SDS011;4786;51.270;4.456;2023-04-15T06:33:33;12.43;;;10.77;;
9496;SDS011;4786;51.270;4.456;2023-04-15T06:35:59;12.50;;;10.30;;
9496;SDS011;4786;51.270;4.456;2023-04-15T06:38:26;16.63;;;11.67;;
9496;SDS011;4786;51.270;4.456;2023-04-15T06:40:51;13.77;;;11.10;;
9496;SDS011;4786;51.270;4.456;2023-04-15T06:43:18;11.90;;;10.67;;
9496;SDS011;4786;51.270;4.456;2023-04-15T06:45:44;14.03;;;11.13;;
9496;SDS011;4786;51.270;4.456;2023-04-15T06:48:10;13.87;;;11.70;;
9496;SDS011;4786;51.270;4.456;2023-04-15T06:50:36;11.37;;;10.00;;
9496;SDS011;4786;51.270;4.456;2023-04-15T06:53:01;13.70;;;10.53;;
9496;SDS011;4786;51.270;4.456;2023-04-15T06:55:27;11.63;;;10.00;;
9496;SDS011;4786;51.270;4.456;2023-04-15T06:57:53;11.10;;;9.90;;
9496;SDS011;4786;51.270;4.456;2023-04-15T07:00:19;10.87;;;9.77;;
9496;SDS011;4786;51.270;4.456;2023-04-15T07:02:45;13.83;;;10.03;;
9496;SDS011;4786;51.270;4.456;2023-04-15T07:05:11;10.87;;;9.77;;
9496;SDS011;4786;51.270;4.456;2023-04-15T07:07:36;11.97;;;9.60;;
9496;SDS011;4786;51.270;4.456;2023-04-15T07:10:03;12.80;;;10.37;;
9496;SDS011;4786;51.270;4.456;2023-04-15T07:12:29;11.47;;;10.07;;
9496;SDS011;4786;51.270;4.456;2023-04-15T07:14:55;12.03;;;10.27;;
9496;SDS011;4786;51.270;4.456;2023-04-15T07:17:21;13.43;;;10.17;;
9496;SDS011;4786;51.270;4.456;2023-04-15T07:19:47;12.20;;;9.53;;
9496;SDS011;4786;51.270;4.456;2023-04-15T07:22:13;11.30;;;10.30;;
9496;SDS011;4786;51.270;4.456;2023-04-15T07:24:38;10.47;;;9.40;;
9496;SDS011;4786;51.270;4.456;2023-04-15T07:27:04;10.13;;;9.03;;
9496;SDS011;4786;51.270;4.456;2023-04-15T07:29:30;11.17;;;9.87;;
9496;SDS011;4786;51.270;4.456;2023-04-15T07:31:56;10.40;;;9.10;;
9496;SDS011;4786;51.270;4.456;2023-04-15T07:34:22;10.67;;;9.37;;
9496;SDS011;4786;51.270;4.456;2023-04-15T07:36:48;10.80;;;9.67;;
9496;SDS011;4786;51.270;4.456;2023-04-15T07:39:17;10.30;;;9.13;;
9496;SDS011;4786;51.270;4.456;2023-04-15T07:41:43;11.23;;;9.73;;
9496;SDS011;4786;51.270;4.456;2023-04-15T07:44:09;10.60;;;9.50;;
9496;SDS011;4786;51.270;4.456;2023-04-15T07:46:36;11.33;;;9.97;;
9496;SDS011;4786;51.270;4.456;2023-04-15T07:49:02;10.33;;;8.80;;
9496;SDS011;4786;51.270;4.456;2023-04-15T07:51:28;13.37;;;9.70;;
9496;SDS011;4786;51.270;4.456;2023-04-15T07:53:54;10.63;;;9.37;;
9496;SDS011;4786;51.270;4.456;2023-04-15T07:56:20;11.17;;;9.27;;
9496;SDS011;4786;51.270;4.456;2023-04-15T07:58:46;9.83;;;8.80;;
9496;SDS011;4786;51.270;4.456;2023-04-15T08:01:12;11.63;;;9.37;;
9496;SDS011;4786;51.270;4.456;2023-04-15T08:03:38;9.47;;;8.50;;
9496;SDS011;4786;51.270;4.456;2023-04-15T08:06:04;10.57;;;9.47;;
9496;SDS011;4786;51.270;4.456;2023-04-15T08:08:30;12.33;;;9.67;;
9496;SDS011;4786;51.270;4.456;2023-04-15T08:10:57;9.87;;;8.73;;
9496;SDS011;4786;51.270;4.456;2023-04-15T08:13:22;11.80;;;8.27;;
9496;SDS011;4786;51.270;4.456;2023-04-15T08:18:59;9.03;;;8.23;;
9496;SDS011;4786;51.270;4.456;2023-04-15T08:21:25;8.43;;;7.63;;
9496;SDS011;4786;51.270;4.456;2023-04-15T08:23:52;8.37;;;7.57;;
9496;SDS011;4786;51.270;4.456;2023-04-15T08:26:19;8.73;;;7.70;;
9496;SDS011;4786;51.270;4.456;2023-04-15T08:28:46;9.13;;;8.30;;
9496;SDS011;4786;51.270;4.456;2023-04-15T08:31:15;8.27;;;7.47;;
9496;SDS011;4786;51.270;4.456;2023-04-15T08:33:43;7.83;;;7.13;;
9496;SDS011;4786;51.270;4.456;2023-04-15T08:36:09;8.27;;;7.47;;
9496;SDS011;4786;51.270;4.456;2023-04-15T08:38:35;7.33;;;6.63;;
9496;SDS011;4786;51.270;4.456;2023-04-15T08:41:11;7.90;;;6.93;;
9496;SDS011;4786;51.270;4.456;2023-04-15T08:43:48;8.13;;;7.07;;
9496;SDS011;4786;51.270;4.456;2023-04-15T08:46:28;8.27;;;7.30;;
9496;SDS011;4786;51.270;4.456;2023-04-15T08:48:56;7.37;;;6.73;;
9496;SDS011;4786;51.270;4.456;2023-04-15T08:51:23;7.30;;;6.50;;
9496;SDS011;4786;51.270;4.456;2023-04-15T08:53:50;7.70;;;6.20;;
9496;SDS011;4786;51.270;4.456;2023-04-15T08:56:18;6.27;;;5.67;;
9496;SDS011;4786;51.270;4.456;2023-04-15T08:58:47;6.20;;;5.60;;
9496;SDS011;4786;51.270;4.456;2023-04-15T09:01:13;7.20;;;5.83;;
9496;SDS011;4786;51.270;4.456;2023-04-15T09:03:39;5.90;;;5.40;;
9496;SDS011;4786;51.270;4.456;2023-04-15T09:06:06;6.10;;;5.50;;
9496;SDS011;4786;51.270;4.456;2023-04-15T09:08:32;6.63;;;5.93;;
9496;SDS011;4786;51.270;4.456;2023-04-15T09:11:01;6.43;;;5.87;;
9496;SDS011;4786;51.270;4.456;2023-04-15T09:13:28;6.33;;;5.47;;
9496;SDS011;4786;51.270;4.456;2023-04-15T09:15:55;6.30;;;5.67;;
9496;SDS011;4786;51.270;4.456;2023-04-15T09:18:32;6.20;;;5.60;;
9496;SDS011;4786;51.270;4.456;2023-04-15T09:23:33;7.60;;;5.73;;
9496;SDS011;4786;51.270;4.456;2023-04-15T09:26:00;6.70;;;5.93;;
9496;SDS011;4786;51.270;4.456;2023-04-15T09:28:27;6.03;;;5.43;;
9496;SDS011;4786;51.270;4.456;2023-04-15T09:30:57;6.50;;;5.80;;
9496;SDS011;4786;51.270;4.456;2023-04-15T09:33:24;5.60;;;5.03;;
9496;SDS011;4786;51.270;4.456;2023-04-15T09:35:59;5.60;;;4.90;;
9496;SDS011;4786;51.270;4.456;2023-04-15T09:38:29;5.43;;;4.47;;
9496;SDS011;4786;51.270;4.456;2023-04-15T09:40:55;5.73;;;5.13;;
9496;SDS011;4786;51.270;4.456;2023-04-15T09:43:22;5.73;;;4.60;;
9496;SDS011;4786;51.270;4.456;2023-04-15T09:46:01;5.97;;;5.03;;
9496;SDS011;4786;51.270;4.456;2023-04-15T09:48:28;5.60;;;5.10;;
9496;SDS011;4786;51.270;4.456;2023-04-15T09:50:58;5.83;;;5.33;;
9496;SDS011;4786;51.270;4.456;2023-04-15T09:53:25;6.17;;;5.50;;
9496;SDS011;4786;51.270;4.456;2023-04-15T09:55:52;7.60;;;5.77;;
9496;SDS011;4786;51.270;4.456;2023-04-15T09:58:26;6.50;;;5.80;;
9496;SDS011;4786;51.270;4.456;2023-04-15T10:00:57;5.40;;;4.90;;
9496;SDS011;4786;51.270;4.456;2023-04-15T10:03:25;6.07;;;5.20;;
9496;SDS011;4786;51.270;4.456;2023-04-15T10:05:52;7.50;;;5.60;;
9496;SDS011;4786;51.270;4.456;2023-04-15T10:08:21;4.37;;;3.97;;
9496;SDS011;4786;51.270;4.456;2023-04-15T10:10:49;4.90;;;4.50;;
9496;SDS011;4786;51.270;4.456;2023-04-15T10:13:20;4.90;;;4.50;;
9496;SDS011;4786;51.270;4.456;2023-04-15T10:15:49;4.97;;;3.63;;
9496;SDS011;4786;51.270;4.456;2023-04-15T10:18:24;4.33;;;4.03;;
9496;SDS011;4786;51.270;4.456;2023-04-15T10:20:52;5.17;;;4.20;;
9496;SDS011;4786;51.270;4.456;2023-04-15T10:23:19;5.43;;;4.43;;
9496;SDS011;4786;51.270;4.456;2023-04-15T10:25:50;7.00;;;6.30;;
9496;SDS011;4786;51.270;4.456;2023-04-15T10:28:18;6.93;;;6.23;;
9496;SDS011;4786;51.270;4.456;2023-04-15T10:30:46;5.70;;;5.13;;
9496;SDS011;4786;51.270;4.456;2023-04-15T10:33:13;5.07;;;4.57;;
9496;SDS011;4786;51.270;4.456;2023-04-15T10:35:42;5.53;;;4.50;;
9496;SDS011;4786;51.270;4.456;2023-04-15T10:41:16;4.80;;;4.27;;
9496;SDS011;4786;51.270;4.456;2023-04-15T10:43:47;5.03;;;4.13;;
9496;SDS011;4786;51.270;4.456;2023-04-15T10:46:17;5.10;;;4.10;;
9496;SDS011;4786;51.270;4.456;2023-04-15T10:48:48;4.67;;;4.27;;
9496;SDS011;4786;51.270;4.456;2023-04-15T10:51:28;5.37;;;4.20;;
9496;SDS011;4786;51.270;4.456;2023-04-15T10:53:56;5.43;;;4.70;;
9496;SDS011;4786;51.270;4.456;2023-04-15T10:56:23;4.97;;;4.00;;
9496;SDS011;4786;51.270;4.456;2023-04-15T10:58:49;4.77;;;4.37;;
9496;SDS011;4786;51.270;4.456;2023-04-15T11:01:15;4.37;;;3.97;;
9496;SDS011;4786;51.270;4.456;2023-04-15T11:03:43;6.17;;;4.67;;
9496;SDS011;4786;51.270;4.456;2023-04-15T11:06:10;4.93;;;4.43;;
9496;SDS011;4786;51.270;4.456;2023-04-15T11:08:55;4.77;;;4.37;;
9496;SDS011;4786;51.270;4.456;2023-04-15T11:11:43;6.00;;;4.80;;
9496;SDS011;4786;51.270;4.456;2023-04-15T11:14:27;5.97;;;4.77;;
9496;SDS011;4786;51.270;4.456;2023-04-15T11:16:53;5.63;;;4.23;;
9496;SDS011;4786;51.270;4.456;2023-04-15T11:19:19;3.40;;;3.10;;
9496;SDS011;4786;51.270;4.456;2023-04-15T11:21:44;4.03;;;3.60;;
9496;SDS011;4786;51.270;4.456;2023-04-15T11:24:10;3.43;;;3.13;;
9496;SDS011;4786;51.270;4.456;2023-04-15T11:26:36;5.47;;;3.50;;
9496;SDS011;4786;51.270;4.456;2023-04-15T11:29:02;4.97;;;4.07;;
9496;SDS011;4786;51.270;4.456;2023-04-15T11:31:29;5.30;;;3.43;;
9496;SDS011;4786;51.270;4.456;2023-04-15T11:33:55;4.63;;;3.73;;
9496;SDS011;4786;51.270;4.456;2023-04-15T11:36:26;6.53;;;3.77;;
9496;SDS011;4786;51.270;4.456;2023-04-15T11:38:54;6.53;;;4.07;;
9496;SDS011;4786;51.270;4.456;2023-04-15T11:41:22;5.63;;;5.03;;
9496;SDS011;4786;51.270;4.456;2023-04-15T11:43:49;6.53;;;4.60;;
9496;SDS011;4786;51.270;4.456;2023-04-15T11:46:16;5.53;;;5.00;;
9496;SDS011;4786;51.270;4.456;2023-04-15T11:48:42;7.57;;;4.50;;
9496;SDS011;4786;51.270;4.456;2023-04-15T11:51:10;5.33;;;4.20;;
9496;SDS011;4786;51.270;4.456;2023-04-15T11:53:47;5.47;;;3.70;;
9496;SDS011;4786;51.270;4.456;2023-04-15T11:56:22;5.23;;;4.10;;
9496;SDS011;4786;51.270;4.456;2023-04-15T11:58:53;5.13;;;3.83;;
9496;SDS011;4786;51.270;4.456;2023-04-15T12:01:30;5.40;;;3.37;;
9496;SDS011;4786;51.270;4.456;2023-04-15T12:03:57;4.23;;;3.60;;
9496;SDS011;4786;51.270;4.456;2023-04-15T12:06:30;3.90;;;3.00;;
9496;SDS011;4786;51.270;4.456;2023-04-15T12:11:35;3.50;;;2.90;;
9496;SDS011;4786;51.270;4.456;2023-04-15T12:16:41;4.40;;;3.40;;
9496;SDS011;4786;51.270;4.456;2023-04-15T12:19:12;4.27;;;3.87;;
9496;SDS011;4786;51.270;4.456;2023-04-15T12:21:41;4.87;;;3.80;;
9496;SDS011;4786;51.270;4.456;2023-04-15T12:24:10;3.27;;;2.97;;
9496;SDS011;4786;51.270;4.456;2023-04-15T12:29:19;4.17;;;2.70;;
9496;SDS011;4786;51.270;4.456;2023-04-15T12:31:53;2.57;;;2.37;;
9496;SDS011;4786;51.270;4.456;2023-04-15T12:34:42;3.20;;;2.50;;
9496;SDS011;4786;51.270;4.456;2023-04-15T12:37:15;4.13;;;2.70;;
9496;SDS011;4786;51.270;4.456;2023-04-15T12:39:42;3.37;;;2.90;;
9496;SDS011;4786;51.270;4.456;2023-04-15T12:42:09;6.97;;;4.83;;
9496;SDS011;4786;51.270;4.456;2023-04-15T12:44:37;9.00;;;7.07;;
9496;SDS011;4786;51.270;4.456;2023-04-15T12:47:03;4.97;;;2.83;;
9496;SDS011;4786;51.270;4.456;2023-04-15T12:49:30;3.67;;;2.57;;
9496;SDS011;4786;51.270;4.456;2023-04-15T12:51:57;4.93;;;3.00;;
9496;SDS011;4786;51.270;4.456;2023-04-15T12:54:25;5.53;;;3.37;;
9496;SDS011;4786;51.270;4.456;2023-04-15T12:56:52;3.40;;;3.10;;
9496;SDS011;4786;51.270;4.456;2023-04-15T12:59:18;4.60;;;3.73;;
9496;SDS011;4786;51.270;4.456;2023-04-15T13:01:45;4.73;;;3.70;;
9496;SDS011;4786;51.270;4.456;2023-04-15T13:04:12;3.80;;;3.00;;
9496;SDS011;4786;51.270;4.456;2023-04-15T13:06:39;2.83;;;2.40;;
9496;SDS011;4786;51.270;4.456;2023-04-15T13:09:05;2.93;;;1.77;;
9496;SDS011;4786;51.270;4.456;2023-04-15T13:11:31;3.70;;;2.23;;
9496;SDS011;4786;51.270;4.456;2023-04-15T13:14:00;3.60;;;2.13;;
9496;SDS011;4786;51.270;4.456;2023-04-15T13:16:28;3.33;;;1.47;;
9496;SDS011;4786;51.270;4.456;2023-04-15T13:18:54;3.10;;;1.70;;
9496;SDS011;4786;51.270;4.456;2023-04-15T13:21:20;3.07;;;1.80;;
9496;SDS011;4786;51.270;4.456;2023-04-15T13:23:47;4.63;;;2.53;;
9496;SDS011;4786;51.270;4.456;2023-04-15T13:26:14;6.63;;;5.00;;
9496;SDS011;4786;51.270;4.456;2023-04-15T13:28:40;2.77;;;2.07;;
9496;SDS011;4786;51.270;4.456;2023-04-15T13:31:05;2.73;;;1.77;;
9496;SDS011;4786;51.270;4.456;2023-04-15T13:33:32;3.93;;;2.00;;
9496;SDS011;4786;51.270;4.456;2023-04-15T13:35:58;4.30;;;1.73;;
9496;SDS011;4786;51.270;4.456;2023-04-15T13:38:24;5.53;;;2.27;;
9496;SDS011;4786;51.270;4.456;2023-04-15T13:40:50;2.63;;;2.10;;
9496;SDS011;4786;51.270;4.456;2023-04-15T13:43:15;4.47;;;3.70;;
9496;SDS011;4786;51.270;4.456;2023-04-15T13:45:41;6.40;;;4.07;;
9496;SDS011;4786;51.270;4.456;2023-04-15T13:48:07;3.33;;;3.03;;
9496;SDS011;4786;51.270;4.456;2023-04-15T13:50:33;4.03;;;2.97;;
9496;SDS011;4786;51.270;4.456;2023-04-15T13:53:00;5.13;;;2.93;;
9496;SDS011;4786;51.270;4.456;2023-04-15T13:55:25;3.53;;;2.80;;
9496;SDS011;4786;51.270;4.456;2023-04-15T13:57:51;4.37;;;3.73;;
9496;SDS011;4786;51.270;4.456;2023-04-15T14:00:17;4.50;;;3.00;;
9496;SDS011;4786;51.270;4.456;2023-04-15T14:02:43;5.23;;;2.90;;
9496;SDS011;4786;51.270;4.456;2023-04-15T14:05:09;3.43;;;3.13;;
9496;SDS011;4786;51.270;4.456;2023-04-15T14:07:36;4.93;;;2.73;;
9496;SDS011;4786;51.270;4.456;2023-04-15T14:10:02;4.20;;;3.10;;
9496;SDS011;4786;51.270;4.456;2023-04-15T14:12:28;6.20;;;3.00;;
9496;SDS011;4786;51.270;4.456;2023-04-15T14:14:54;4.23;;;3.30;;
9496;SDS011;4786;51.270;4.456;2023-04-15T14:17:20;3.80;;;2.90;;
9496;SDS011;4786;51.270;4.456;2023-04-15T14:19:46;7.40;;;3.40;;
9496;SDS011;4786;51.270;4.456;2023-04-15T14:22:12;4.30;;;3.40;;
9496;SDS011;4786;51.270;4.456;2023-04-15T14:24:38;6.10;;;3.10;;
9496;SDS011;4786;51.270;4.456;2023-04-15T14:27:03;3.00;;;2.60;;
9496;SDS011;4786;51.270;4.456;2023-04-15T14:29:30;2.77;;;2.30;;
9496;SDS011;4786;51.270;4.456;2023-04-15T14:31:56;3.53;;;2.60;;
9496;SDS011;4786;51.270;4.456;2023-04-15T14:34:23;5.20;;;3.07;;
9496;SDS011;4786;51.270;4.456;2023-04-15T14:36:49;3.30;;;2.93;;
9496;SDS011;4786;51.270;4.456;2023-04-15T14:39:17;3.20;;;2.63;;
9496;SDS011;4786;51.270;4.456;2023-04-15T14:41:44;3.00;;;2.33;;
9496;SDS011;4786;51.270;4.456;2023-04-15T14:44:10;4.13;;;2.43;;
9496;SDS011;4786;51.270;4.456;2023-04-15T14:46:36;3.40;;;2.60;;
9496;SDS011;4786;51.270;4.456;2023-04-15T14:49:03;4.13;;;2.40;;
9496;SDS011;4786;51.270;4.456;2023-04-15T14:51:29;4.97;;;2.60;;
9496;SDS011;4786;51.270;4.456;2023-04-15T14:53:55;3.63;;;2.60;;
9496;SDS011;4786;51.270;4.456;2023-04-15T14:56:21;2.93;;;2.50;;
9496;SDS011;4786;51.270;4.456;2023-04-15T14:58:47;3.10;;;2.60;;
9496;SDS011;4786;51.270;4.456;2023-04-15T15:01:13;4.13;;;1.90;;
9496;SDS011;4786;51.270;4.456;2023-04-15T15:03:39;3.43;;;2.23;;
9496;SDS011;4786;51.270;4.456;2023-04-15T15:06:05;2.13;;;1.70;;
9496;SDS011;4786;51.270;4.456;2023-04-15T15:08:30;3.40;;;1.90;;
9496;SDS011;4786;51.270;4.456;2023-04-15T15:10:56;2.43;;;1.90;;
9496;SDS011;4786;51.270;4.456;2023-04-15T15:13:22;2.97;;;1.80;;
9496;SDS011;4786;51.270;4.456;2023-04-15T15:15:48;2.60;;;1.90;;
9496;SDS011;4786;51.270;4.456;2023-04-15T15:18:14;3.03;;;1.90;;
9496;SDS011;4786;51.270;4.456;2023-04-15T15:20:42;3.03;;;1.90;;
9496;SDS011;4786;51.270;4.456;2023-04-15T15:23:08;2.17;;;1.70;;
9496;SDS011;4786;51.270;4.456;2023-04-15T15:25:34;1.87;;;1.77;;
9496;SDS011;4786;51.270;4.456;2023-04-15T15:28:00;4.17;;;2.07;;